Terminal Aerodrome Forecast
Issued by NWS

Home | Current Version | Previous Version | Graphics & Text | Print | Product List | Glossary On
Versions: 1 2 3 4 5 6 7 8 9 10 11 12 13 14 15 16 17 18 19 20 21
000
FTUS43 KMPX 231000 AAA
TAFRNH
TAF AMD
KRNH 231003Z 2310/2406 04012KT 6SM BR OVC010
     FM231400 03012KT 1/2SM SN FG VV002
     FM232000 35012KT 3SM -SN OVC006=

USA.gov is the U.S. government's official web portal to all federal, state and local government web resources and services.